Time;durP1;ratioP1;P1;durP2;ratioP2;P2;SDS_P1;SDS_P2;PMS_P1;PMS_P2;Temp;Humidity;BMP_temperature;BMP_pressure;BME280_temperature;BME280_humidity;BME280_pressure;Samples;Min_cycle;Max_cycle;Signal;HPM_P1;HPM_P2
2022/09/06 00:00:38;;;;;;;5.13;4.60;;;;;;;20.11;63.74;97322.09;10321725;28;20043;-80
2022/09/06 00:05:58;;;;;;;5.15;4.70;;;;;;;20.12;63.78;97317.47;10341118;28;20104;-80
2022/09/06 00:11:18;;;;;;;4.90;4.50;;;;;;;20.12;63.78;97306.66;10345736;28;20042;-81
2022/09/06 00:16:39;;;;;;;5.28;4.78;;;;;;;20.11;63.74;97319.38;10343948;28;20501;-80
2022/09/06 00:21:58;;;;;;;5.15;4.65;;;;;;;20.11;63.87;97313.16;10338349;28;20046;-80
2022/09/06 00:27:18;;;;;;;4.35;4.05;;;;;;;20.11;63.68;97315.88;10343055;28;20146;-80
2022/09/06 00:32:37;;;;;;;4.88;4.45;;;;;;;20.11;63.85;97310.47;10344330;28;20050;-80
2022/09/06 00:37:59;;;;;;;4.90;4.30;;;;;;;20.11;63.70;97305.03;10358750;28;20049;-80
2022/09/06 00:43:18;;;;;;;5.00;4.35;;;;;;;20.11;63.82;97300.47;10317037;28;20375;-80
2022/09/06 00:48:38;;;;;;;5.25;4.30;;;;;;;20.10;63.71;97304.25;10351633;28;20046;-80
2022/09/06 00:54:02;;;;;;;4.68;4.28;;;;;;;20.10;63.81;97298.06;10354114;28;20409;-80
2022/09/06 00:59:24;;;;;;;5.97;4.68;;;;;;;20.11;63.81;97302.34;10344386;28;20497;-80
2022/09/06 01:04:44;;;;;;;4.40;4.00;;;;;;;20.11;63.88;97291.53;10349815;28;20042;-82
2022/09/06 01:10:04;;;;;;;5.78;4.60;;;;;;;20.10;63.75;97289.94;10353395;28;20061;-82
2022/09/06 01:15:45;;;;;;;4.82;4.38;;;;;;;20.10;63.81;97290.72;10357740;28;20104;-83
2022/09/06 01:21:26;;;;;;;4.60;4.20;;;;;;;20.10;63.69;97284.53;10357496;28;20374;-82
2022/09/06 01:26:55;;;;;;;4.88;4.40;;;;;;;20.09;63.74;97282.94;10350957;28;20049;-82
2022/09/06 01:32:14;;;;;;;;;;;;;;;20.09;63.75;97286.44;10334491;28;20043;-82
2022/09/06 01:37:34;;;;;;;6.18;4.03;;;;;;;20.09;63.56;97285.63;10340782;28;20392;-82
2022/09/06 01:42:53;;;;;;;8.95;4.28;;;;;;;20.10;63.63;97290.72;10327690;28;20051;-82
2022/09/06 01:48:29;;;;;;;4.20;3.85;;;;;;;20.09;63.65;97282.94;10339516;28;20038;-82
2022/09/06 01:53:58;;;;;;;4.10;3.80;;;;;;;20.09;63.86;97297.28;10327765;28;20051;-82
2022/09/06 01:59:25;;;;;;;4.60;4.18;;;;;;;20.10;63.67;97303.47;10348395;28;20034;-82
2022/09/06 02:04:51;;;;;;;4.38;3.95;;;;;;;20.08;63.57;97311.09;10361123;28;20090;-82
2022/09/06 02:10:17;;;;;;;4.40;4.10;;;;;;;20.09;63.73;97307.28;10320303;28;20442;-82
2022/09/06 02:15:44;;;;;;;4.53;4.13;;;;;;;20.09;63.63;97309.97;10343420;28;20049;-82
2022/09/06 02:21:05;;;;;;;4.30;3.90;;;;;;;20.09;63.52;97301.88;10327100;28;20053;-82
2022/09/06 02:26:27;;;;;;;4.45;4.05;;;;;;;20.08;63.59;97301.06;10334288;28;20074;-82
2022/09/06 02:31:54;;;;;;;4.38;3.97;;;;;;;20.08;63.50;97300.28;10309077;28;20046;-82
2022/09/06 02:37:14;;;;;;;4.30;3.90;;;;;;;20.08;63.52;97292.16;10325114;28;20047;-82
2022/09/06 02:42:34;;;;;;;4.00;3.60;;;;;;;20.09;63.56;97296.47;10320868;28;20034;-82
2022/09/06 02:47:53;;;;;;;3.97;3.67;;;;;;;20.08;63.56;97292.97;10324837;28;20046;-82
2022/09/06 02:53:14;;;;;;;3.95;3.65;;;;;;;20.08;63.59;97289.47;10334555;28;20597;-82
2022/09/06 02:58:34;;;;;;;4.18;3.78;;;;;;;20.08;63.53;97289.47;10320020;28;20402;-82
2022/09/06 03:03:53;;;;;;;4.13;3.72;;;;;;;20.08;63.60;97278.66;10337032;28;20053;-82
2022/09/06 03:09:14;;;;;;;4.10;3.80;;;;;;;20.07;63.58;97277.88;10333312;28;20038;-82
2022/09/06 03:14:34;;;;;;;3.67;3.38;;;;;;;20.09;63.54;97272.13;10333713;28;20042;-82
2022/09/06 03:19:54;;;;;;;3.88;3.58;;;;;;;20.07;63.64;97274.34;10340632;28;20512;-82
2022/09/06 03:25:13;;;;;;;3.72;3.42;;;;;;;20.08;63.52;97273.25;10322837;28;20058;-82
2022/09/06 03:30:33;;;;;;;3.80;3.50;;;;;;;20.07;63.58;97274.34;10339409;28;20043;-82
2022/09/06 03:35:55;;;;;;;6.43;3.65;;;;;;;20.06;63.54;97278.16;10341977;28;20096;-82
2022/09/06 03:41:14;;;;;;;3.72;3.42;;;;;;;20.07;63.48;97271.63;10318919;28;20409;-82
2022/09/06 03:46:34;;;;;;;3.70;3.40;;;;;;;20.06;63.58;97270.84;10322238;28;20386;-82
2022/09/06 03:51:53;;;;;;;3.58;3.28;;;;;;;20.07;63.50;97252.69;10333469;28;20552;-82
2022/09/06 03:57:13;;;;;;;3.75;3.45;;;;;;;20.06;63.39;97261.94;10345041;28;20062;-82
2022/09/06 04:02:32;;;;;;;3.67;3.38;;;;;;;20.06;63.42;97264.66;10337368;28;20038;-82
2022/09/06 04:07:51;;;;;;;3.65;3.35;;;;;;;20.06;63.45;97275.47;10330905;28;20038;-82
2022/09/06 04:13:10;;;;;;;4.00;3.60;;;;;;;20.06;63.58;97280.88;10317476;28;20046;-82
2022/09/06 04:18:31;;;;;;;3.58;3.17;;;;;;;20.06;63.46;97280.88;10318325;28;20391;-82
2022/09/06 04:23:50;;;;;;;3.80;3.50;;;;;;;20.06;63.41;97278.97;10310589;28;20034;-82
2022/09/06 04:29:09;;;;;;;3.28;3.05;;;;;;;20.05;63.45;97274.69;10339805;28;20046;-82
2022/09/06 04:34:29;;;;;;;3.85;3.55;;;;;;;20.05;63.46;97271.97;10325940;28;20066;-82
2022/09/06 04:39:49;;;;;;;3.50;3.20;;;;;;;20.06;63.36;97272.75;10331792;28;20437;-82
2022/09/06 04:45:09;;;;;;;5.20;3.55;;;;;;;20.07;63.54;97268.94;10333799;28;20053;-82
2022/09/06 04:50:28;;;;;;;3.70;3.40;;;;;;;20.05;63.50;97263.84;10352235;28;20510;-82
2022/09/06 04:55:57;;;;;;;3.55;3.25;;;;;;;20.04;63.56;97256.84;10339514;28;20101;-82
2022/09/06 05:01:17;;;;;;;4.90;3.22;;;;;;;20.06;63.47;97264.66;10338571;28;20073;-82
2022/09/06 05:06:38;;;;;;;3.65;3.35;;;;;;;20.06;63.55;97264.66;10351474;28;20042;-82
2022/09/06 05:11:59;;;;;;;3.80;3.50;;;;;;;20.05;63.53;97269.25;10337927;28;20052;-82
2022/09/06 05:17:19;;;;;;;3.60;3.30;;;;;;;20.07;63.32;97266.22;10353304;28;20478;-82
2022/09/06 05:22:39;;;;;;;3.70;3.40;;;;;;;20.05;63.33;97271.97;10351972;28;20046;-82
2022/09/06 05:27:58;;;;;;;4.03;3.20;;;;;;;20.06;63.21;97276.25;10354126;28;20037;-83
2022/09/06 05:33:20;;;;;;;3.70;3.30;;;;;;;20.06;63.33;97270.84;10323943;28;20108;-82
2022/09/06 05:38:40;;;;;;;3.40;3.10;;;;;;;20.07;63.20;97282.44;10306880;28;20494;-82
2022/09/06 05:43:59;;;;;;;5.35;4.90;;;;;;;19.86;58.80;97277.66;10317283;28;20058;-82
2022/09/06 05:49:18;;;;;;;5.57;5.07;;;;;;;19.56;58.19;97266.56;10324162;28;20050;-82
2022/09/06 05:54:38;;;;;;;5.95;4.75;;;;;;;19.43;58.33;97283.66;10345981;28;20117;-82
2022/09/06 05:59:58;;;;;;;7.35;4.70;;;;;;;19.36;58.69;97286.00;10327495;28;20046;-81
2022/09/06 06:05:17;;;;;;;5.20;4.70;;;;;;;19.38;59.61;97304.63;10323371;28;20047;-82
2022/09/06 06:10:38;;;;;;;5.68;5.15;;;;;;;19.37;58.86;97293.03;10308418;28;20614;-82
2022/09/06 06:15:57;;;;;;;5.85;4.70;;;;;;;19.34;59.00;97293.63;10325999;28;20042;-82
2022/09/06 06:21:27;;;;;;;6.00;4.93;;;;;;;19.35;59.37;97287.94;10337910;28;20042;-83
2022/09/06 06:26:47;;;;;;;5.53;4.95;;;;;;;19.36;59.55;97280.59;10343553;28;20042;-81
2022/09/06 06:32:06;;;;;;;5.95;5.30;;;;;;;19.33;59.49;97282.03;10330580;28;20410;-82
2022/09/06 06:37:26;;;;;;;5.55;4.90;;;;;;;19.30;58.53;97285.34;10335020;28;20050;-83
2022/09/06 06:42:45;;;;;;;5.93;4.65;;;;;;;19.30;58.50;97281.84;10342081;28;20042;-83
2022/09/06 06:48:04;;;;;;;6.13;4.70;;;;;;;19.32;58.59;97280.44;10338258;28;20035;-84
2022/09/06 06:53:24;;;;;;;5.03;4.60;;;;;;;19.32;59.71;97268.84;10355685;28;20042;-84
2022/09/06 06:58:45;;;;;;;6.07;4.32;;;;;;;19.40;59.62;97270.78;10347236;28;20049;-84
2022/09/06 07:04:05;;;;;;;5.60;4.50;;;;;;;19.49;59.78;97273.53;10333534;28;20108;-84
2022/09/06 07:09:25;;;;;;;5.88;4.28;;;;;;;19.54;59.81;97271.47;10341112;28;20047;-84
2022/09/06 07:14:45;;;;;;;6.55;4.13;;;;;;;19.59;60.05;97275.16;10346769;28;20093;-84
2022/09/06 07:20:05;;;;;;;4.47;4.03;;;;;;;19.62;60.23;97279.91;10337491;28;20046;-84
2022/09/06 07:25:25;;;;;;;4.28;3.88;;;;;;;19.64;60.23;97277.69;10339740;28;20039;-84
2022/09/06 07:30:45;;;;;;;4.60;3.78;;;;;;;19.64;60.16;97275.81;10323974;28;20065;-83
2022/09/06 07:36:06;;;;;;;4.72;4.28;;;;;;;19.67;60.28;97282.50;10322882;28;20053;-84
2022/09/06 07:41:26;;;;;;;4.70;3.88;;;;;;;19.68;60.40;97281.38;10299900;28;20414;-83
2022/09/06 07:46:45;;;;;;;5.65;4.13;;;;;;;19.69;60.53;97285.69;10330497;28;20123;-83
2022/09/06 07:52:05;;;;;;;5.18;4.53;;;;;;;19.69;60.58;97277.56;10350607;28;20048;-84
2022/09/06 07:57:24;;;;;;;4.57;4.10;;;;;;;19.70;60.66;97279.16;10345006;28;20037;-84
2022/09/06 08:02:43;;;;;;;4.95;3.90;;;;;;;19.71;60.65;97283.44;10337772;28;20449;-83
2022/09/06 08:08:02;;;;;;;5.25;4.53;;;;;;;19.71;60.59;97281.56;10344496;28;20050;-83
2022/09/06 08:13:22;;;;;;;5.72;3.85;;;;;;;19.71;60.73;97273.47;10343915;28;20050;-83
2022/09/06 08:18:42;;;;;;;4.40;3.80;;;;;;;19.73;60.60;97273.94;10334486;28;20484;-83
2022/09/06 08:24:03;;;;;;;4.10;3.70;;;;;;;19.72;60.83;97266.97;10347395;28;20413;-83
2022/09/06 08:29:22;;;;;;;5.93;3.70;;;;;;;19.73;60.82;97275.84;10330229;28;20498;-82
2022/09/06 08:34:42;;;;;;;5.60;3.97;;;;;;;19.73;60.92;97267.75;10333242;28;20054;-83
2022/09/06 08:40:02;;;;;;;5.10;3.70;;;;;;;19.73;61.07;97265.84;10331337;28;20058;-83
2022/09/06 08:45:22;;;;;;;4.22;3.83;;;;;;;19.75;60.88;97276.34;10340847;28;20046;-83
2022/09/06 08:50:52;;;;;;;4.18;3.78;;;;;;;19.75;61.06;97270.94;10334039;28;20101;-83
2022/09/06 08:56:22;;;;;;;4.03;3.65;;;;;;;19.76;61.15;97277.94;10330343;28;20049;-83
2022/09/06 09:02:12;;;;;;;4.90;4.10;;;;;;;19.77;61.17;97276.03;10303623;28;20406;-83
2022/09/06 09:07:44;;;;;;;4.10;3.70;;;;;;;19.77;61.24;97273.31;10333458;28;20038;-83
2022/09/06 09:13:06;;;;;;;4.40;4.00;;;;;;;19.78;61.22;97275.72;10349548;28;20042;-83
2022/09/06 09:18:29;;;;;;;3.83;3.53;;;;;;;19.78;61.32;97264.91;10337383;28;20145;-83
2022/09/06 09:23:54;;;;;;;4.20;3.80;;;;;;;19.78;61.19;97259.50;10323822;28;20038;-83
2022/09/06 09:29:14;;;;;;;4.55;4.15;;;;;;;19.79;61.32;97254.88;10336863;28;20061;-83
2022/09/06 09:34:38;;;;;;;4.07;3.78;;;;;;;19.79;61.35;97250.25;10328902;28;20046;-83
2022/09/06 09:39:58;;;;;;;4.28;3.88;;;;;;;19.78;61.44;97232.47;10333753;28;20058;-83
2022/09/06 09:45:27;;;;;;;3.78;3.47;;;;;;;19.79;61.44;97233.25;10351074;28;20093;-83
2022/09/06 09:50:47;;;;;;;4.07;3.70;;;;;;;19.79;61.37;97225.94;10331967;28;20101;-83
2022/09/06 09:56:06;;;;;;;4.13;3.83;;;;;;;19.81;61.43;97225.63;10349863;28;20486;-83
2022/09/06 10:01:32;;;;;;;4.03;3.50;;;;;;;19.81;61.59;97231.03;10327245;28;20050;-83
2022/09/06 10:06:52;;;;;;;4.20;3.80;;;;;;;19.81;61.54;97223.72;10335855;28;20038;-83
2022/09/06 10:12:27;;;;;;;4.47;4.07;;;;;;;19.81;61.53;97215.59;10349129;28;20045;-83
2022/09/06 10:17:50;;;;;;;3.97;3.67;;;;;;;19.82;61.57;97209.09;10330573;28;20038;-83
2022/09/06 10:23:44;;;;;;;3.72;3.42;;;;;;;19.82;61.64;97194.78;10334842;28;20045;-83
2022/09/06 10:29:05;;;;;;;3.70;3.40;;;;;;;19.83;61.63;97196.38;10349439;28;20039;-83
2022/09/06 10:34:37;;;;;;;4.38;3.63;;;;;;;19.83;61.78;97191.75;10335992;28;20056;-83
2022/09/06 10:40:06;;;;;;;4.10;3.80;;;;;;;19.83;61.78;97199.06;10328502;28;20058;-83
2022/09/06 10:45:45;;;;;;;3.70;3.40;;;;;;;19.83;61.82;97196.38;10323904;28;20045;-83
2022/09/06 10:51:08;;;;;;;4.13;3.83;;;;;;;19.83;61.81;97197.16;10310643;28;20046;-83
2022/09/06 10:56:34;;;;;;;3.75;3.45;;;;;;;19.84;61.86;97196.06;10347604;28;20053;-83
2022/09/06 11:02:24;;;;;;;3.92;3.63;;;;;;;19.84;61.90;97192.56;10337554;28;20046;-83
2022/09/06 11:07:45;;;;;;;3.90;3.60;;;;;;;19.85;62.00;97194.13;10335461;28;20046;-83
2022/09/06 11:13:09;;;;;;;3.65;3.35;;;;;;;19.84;61.90;97190.66;10330594;28;20050;-83
2022/09/06 11:18:35;;;;;;;3.80;3.50;;;;;;;19.85;62.01;97194.13;10349895;28;20042;-83
2022/09/06 11:24:05;;;;;;;4.00;3.70;;;;;;;19.86;62.11;97185.72;10332735;28;20046;-83
2022/09/06 11:29:26;;;;;;;3.83;3.53;;;;;;;19.86;62.22;97177.59;10318962;28;20058;-83
2022/09/06 11:34:56;;;;;;;3.85;3.55;;;;;;;19.86;62.11;97166.78;10313046;28;20042;-83
2022/09/06 11:40:21;;;;;;;4.05;3.33;;;;;;;19.86;62.18;97161.38;10309200;28;20529;-83
2022/09/06 11:45:51;;;;;;;4.72;3.72;;;;;;;19.86;62.17;97147.88;10322046;28;20159;-83
2022/09/06 11:51:30;;;;;;;3.70;3.40;;;;;;;19.86;61.90;97147.88;10292030;28;20038;-83
2022/09/06 11:57:10;;;;;;;3.70;3.40;;;;;;;19.87;62.25;97144.03;10306275;28;20447;-83
2022/09/06 12:02:34;;;;;;;3.67;3.38;;;;;;;19.87;62.15;97146.75;10309295;28;20046;-83
2022/09/06 12:08:14;;;;;;;3.90;3.60;;;;;;;19.89;62.26;97132.91;10304346;28;20390;-83
2022/09/06 12:13:50;;;;;;;3.85;3.55;;;;;;;19.89;62.32;97125.59;10283762;28;20038;-84
2022/09/06 12:19:41;;;;;;;4.18;3.65;;;;;;;19.89;62.30;97120.19;10277797;28;20047;-83
2022/09/06 12:25:15;;;;;;;3.88;3.40;;;;;;;19.89;62.30;97111.28;10314456;28;20050;-84
2022/09/06 12:30:38;;;;;;;4.80;3.58;;;;;;;19.90;62.35;97110.97;10307900;28;20061;-84
2022/09/06 12:36:17;;;;;;;3.50;3.20;;;;;;;19.90;62.39;97105.56;10305279;28;20046;-84
2022/09/06 12:41:39;;;;;;;3.60;3.30;;;;;;;19.90;62.40;97094.75;10305398;28;20124;-84
2022/09/06 12:47:04;;;;;;;3.67;3.35;;;;;;;19.91;62.36;97090.91;10295237;28;20042;-84
2022/09/06 12:52:24;;;;;;;3.88;3.50;;;;;;;19.91;62.45;97082.78;10287713;28;20454;-85
2022/09/06 12:57:55;;;;;;;3.55;3.25;;;;;;;19.91;62.43;97080.09;10303478;28;20039;-84
2022/09/06 13:03:20;;;;;;;3.83;3.53;;;;;;;19.92;62.49;97072.81;10311667;28;20047;-84
2022/09/06 13:08:47;;;;;;;3.70;3.40;;;;;;;19.92;62.49;97070.88;10296655;28;20046;-84
2022/09/06 13:14:17;;;;;;;3.42;3.22;;;;;;;19.93;62.51;97074.38;10303342;28;20070;-84
2022/09/06 13:19:38;;;;;;;3.47;3.17;;;;;;;19.92;62.62;97070.88;10313000;28;20081;-84
2022/09/06 13:24:58;;;;;;;3.50;3.20;;;;;;;19.92;62.52;97070.88;10272909;28;20046;-84
2022/09/06 13:30:35;;;;;;;3.45;3.22;;;;;;;19.93;62.54;97068.97;10310797;28;20045;-84
2022/09/06 13:36:11;;;;;;;3.42;3.22;;;;;;;19.93;62.71;97066.25;10297593;28;20066;-84
2022/09/06 13:41:39;;;;;;;3.67;3.22;;;;;;;19.95;62.60;97074.84;10339255;28;20548;-84
2022/09/06 13:46:59;;;;;;;3.60;3.30;;;;;;;19.94;62.63;97073.28;10323146;28;20049;-84
2022/09/06 13:52:20;;;;;;;3.75;3.45;;;;;;;19.94;62.55;97074.06;10349447;28;20457;-84
2022/09/06 13:57:39;;;;;;;3.35;3.15;;;;;;;19.95;62.63;97080.25;10318233;28;20042;-84
2022/09/06 14:02:59;;;;;;;3.58;3.28;;;;;;;19.94;62.74;97074.06;10314978;28;20509;-84
2022/09/06 14:08:18;;;;;;;3.35;3.15;;;;;;;19.96;62.50;97073.75;10323795;28;20049;-84
2022/09/06 14:13:38;;;;;;;3.45;3.15;;;;;;;19.97;62.69;97077.25;10331938;28;20069;-84
2022/09/06 14:18:58;;;;;;;3.50;3.30;;;;;;;19.96;62.72;97071.03;10337861;28;20402;-84
2022/09/06 14:24:17;;;;;;;3.20;3.00;;;;;;;19.96;62.59;97060.22;10335176;28;20121;-84
2022/09/06 14:29:37;;;;;;;3.22;2.92;;;;;;;19.97;62.67;97061.00;10322668;28;20065;-84
2022/09/06 14:34:56;;;;;;;3.33;3.13;;;;;;;19.98;62.57;97068.03;10332713;28;20046;-83
2022/09/06 14:40:16;;;;;;;3.53;3.20;;;;;;;20.00;62.71;97054.97;10329283;28;20055;-83
2022/09/06 14:45:35;;;;;;;3.45;3.17;;;;;;;20.01;62.83;97045.72;10322514;28;20043;-83
2022/09/06 14:50:55;;;;;;;10.73;3.55;;;;;;;20.03;62.89;97054.31;10336556;28;20043;-83
2022/09/06 14:56:15;;;;;;;6.70;4.32;;;;;;;20.05;63.28;97058.31;10350191;28;20042;-82
2022/09/06 15:01:35;;;;;;;5.93;4.07;;;;;;;20.07;63.58;97047.97;10330453;28;20071;-85
2022/09/06 15:06:54;;;;;;;4.32;3.92;;;;;;;20.08;63.87;97046.84;10320230;28;20042;-83
2022/09/06 15:12:14;;;;;;;8.07;3.85;;;;;;;20.09;63.94;97029.50;10336866;28;20075;-82
2022/09/06 15:17:33;;;;;;;6.55;4.07;;;;;;;20.08;63.96;97036.03;10333320;28;20057;-83
2022/09/06 15:22:53;;;;;;;4.32;3.90;;;;;;;20.07;64.01;97056.09;10346364;28;20056;-83
2022/09/06 15:28:13;;;;;;;7.65;3.90;;;;;;;20.08;64.37;97043.34;10334909;28;20040;-83
2022/09/06 15:33:35;;;;;;;4.20;3.90;;;;;;;20.08;64.37;97046.06;10319792;28;20053;-84
2022/09/06 15:38:58;;;;;;;7.00;4.45;;;;;;;20.08;64.57;97040.66;10335729;28;20056;-83
2022/09/06 15:44:19;;;;;;;6.05;4.15;;;;;;;20.08;64.81;97035.22;10310855;28;20043;-83
2022/09/06 15:49:40;;;;;;;4.70;4.28;;;;;;;20.08;65.14;97048.75;10345472;28;20061;-83
2022/09/06 16:00:38;;;;;;;5.30;4.32;;;;;;;20.07;65.56;97049.84;10346461;28;20052;-83
2022/09/06 16:06:06;;;;;;;5.55;4.88;;;;;;;20.07;65.79;97053.38;10339184;28;20042;-82
2022/09/06 16:11:26;;;;;;;5.80;5.30;;;;;;;20.08;66.42;97054.94;10316331;28;20460;-83
2022/09/06 16:16:46;;;;;;;7.18;4.97;;;;;;;20.08;66.58;97049.53;10291891;28;20042;-84
2022/09/06 16:22:05;;;;;;;6.00;5.40;;;;;;;20.08;66.99;97030.59;10339773;28;20061;-83
2022/09/06 16:27:25;;;;;;;6.32;5.45;;;;;;;20.08;67.20;97027.91;10330625;28;20490;-83
2022/09/06 16:32:45;;;;;;;6.88;5.90;;;;;;;20.08;67.28;97019.78;10344409;28;20409;-83
2022/09/06 16:38:06;;;;;;;7.60;5.47;;;;;;;20.08;67.65;97019.00;10326486;28;20441;-82
2022/09/06 16:43:26;;;;;;;5.75;5.18;;;;;;;20.08;67.26;97003.56;10331359;28;20038;-84
2022/09/06 16:48:53;;;;;;;5.93;5.30;;;;;;;20.09;67.01;96988.13;10345861;28;20038;-83
2022/09/06 16:54:14;;;;;;;5.68;5.13;;;;;;;20.08;66.95;96995.44;10320624;28;20482;-83
2022/09/06 16:59:33;;;;;;;8.57;5.43;;;;;;;20.07;66.72;96980.34;10338204;28;20050;-83
2022/09/06 17:04:53;;;;;;;6.43;5.00;;;;;;;20.09;66.90;96980.00;10344602;28;20046;-89
2022/09/06 17:10:12;;;;;;;6.15;5.55;;;;;;;20.10;67.18;96981.63;10319249;28;20092;-88
2022/09/06 17:17:03;;;;;;;9.30;6.55;;;;;;;20.10;67.38;96970.78;10313585;28;20042;-84
2022/09/06 17:21:12;;;;;;;10.05;6.40;;;;;;;20.13;68.18;96980.94;10334644;28;20042;-84
2022/09/06 17:26:35;;;;;;;22.50;8.75;;;;;;;20.12;68.03;96982.09;10306284;28;20038;-85
2022/09/06 17:31:54;;;;;;;16.33;7.57;;;;;;;20.18;68.38;96980.00;10325839;28;20043;-85
2022/09/06 17:37:14;;;;;;;20.27;9.52;;;;;;;20.20;68.74;96989.38;10320277;28;20050;-85
2022/09/06 17:42:34;;;;;;;19.23;8.52;;;;;;;20.24;68.98;96984.13;10322879;28;20046;-84
2022/09/06 17:47:53;;;;;;;17.65;8.48;;;;;;;20.25;69.01;96991.91;10342512;28;20575;-84
2022/09/06 17:53:13;;;;;;;12.40;7.90;;;;;;;20.25;69.01;96991.91;10358812;28;20050;-84
2022/09/06 17:58:32;;;;;;;10.82;8.20;;;;;;;20.25;69.31;96985.72;10359131;28;20042;-84
2022/09/06 18:03:52;;;;;;;8.52;7.65;;;;;;;20.16;68.96;96988.44;10343118;28;20394;-84
2022/09/06 18:09:14;;;;;;;7.75;6.85;;;;;;;20.11;68.87;96991.31;10335860;28;20100;-84
2022/09/06 18:14:34;;;;;;;7.65;6.88;;;;;;;20.06;68.80;96986.88;10344667;28;20045;-83
2022/09/06 18:19:53;;;;;;;7.18;6.47;;;;;;;20.08;68.29;96989.25;10350859;28;20054;-84
2022/09/06 18:25:13;;;;;;;9.02;6.28;;;;;;;20.09;67.83;96993.53;10322259;28;20049;-82
2022/09/06 18:30:32;;;;;;;7.90;6.10;;;;;;;20.09;67.61;96996.25;10357770;28;20042;-82
2022/09/06 18:35:52;;;;;;;8.65;5.50;;;;;;;20.10;67.55;96997.84;10332219;28;20047;-81
2022/09/06 18:41:58;;;;;;;6.85;6.20;;;;;;;20.10;67.45;97014.84;10340634;28;20062;-81
2022/09/06 18:46:54;;;;;;;6.80;5.63;;;;;;;20.10;67.55;97016.78;10334476;28;20057;-81
2022/09/06 18:52:14;;;;;;;7.22;5.30;;;;;;;20.10;67.32;97016.78;10332794;28;20069;-83
2022/09/06 18:57:34;;;;;;;7.80;6.30;;;;;;;20.10;67.14;97019.47;10337148;28;20478;-82
2022/09/06 19:02:55;;;;;;;6.40;5.25;;;;;;;20.11;67.07;97015.63;10361026;28;20095;-81
2022/09/06 19:08:15;;;;;;;6.15;5.38;;;;;;;20.12;67.16;97011.84;10342095;28;20038;-81
2022/09/06 19:13:40;;;;;;;6.45;5.47;;;;;;;20.12;67.25;97025.34;10355283;28;20113;-81
2022/09/06 19:19:02;;;;;;;7.35;5.85;;;;;;;20.14;67.39;97018.50;10373288;28;20094;-82
2022/09/06 19:24:21;;;;;;;6.22;5.55;;;;;;;20.14;67.70;97013.09;10343048;28;20041;-82
2022/09/06 19:29:41;;;;;;;6.88;5.07;;;;;;;20.15;67.57;97013.91;10316331;28;20082;-83
2022/09/06 19:35:01;;;;;;;6.18;5.07;;;;;;;20.14;67.55;96998.78;10347199;28;20515;-83
2022/09/06 19:40:20;;;;;;;6.60;5.47;;;;;;;20.16;67.70;96993.84;10280042;28;20054;-83
2022/09/06 19:45:40;;;;;;;5.50;5.00;;;;;;;20.15;67.66;96976.81;10297542;28;20042;-83
2022/09/06 19:51:02;;;;;;;6.18;5.22;;;;;;;20.16;67.76;96969.50;10303021;28;20050;-82
2022/09/06 19:56:23;;;;;;;8.57;6.00;;;;;;;20.16;67.84;96974.91;10281405;28;20402;-83
2022/09/06 20:01:45;;;;;;;7.18;5.32;;;;;;;20.17;67.80;96981.91;10301299;28;20051;-83
2022/09/06 20:07:05;;;;;;;8.05;5.65;;;;;;;20.17;67.95;96987.31;10300051;28;20043;-83
2022/09/06 20:12:24;;;;;;;12.13;6.22;;;;;;;20.18;67.90;96980.00;10328625;28;20046;-83
2022/09/06 20:17:44;;;;;;;10.23;6.03;;;;;;;20.18;67.87;96988.91;10305504;28;20057;-83
2022/09/06 20:23:03;;;;;;;9.57;6.30;;;;;;;20.17;67.93;96981.91;10297573;28;20043;-84
2022/09/06 20:28:23;;;;;;;15.77;7.22;;;;;;;20.18;68.09;96978.09;10287186;28;20044;-84
2022/09/06 20:33:43;;;;;;;15.27;6.60;;;;;;;20.18;68.04;96974.59;10309233;28;20054;-83
2022/09/06 20:39:03;;;;;;;12.02;6.88;;;;;;;20.18;68.04;96980.78;10308777;28;20113;-83
2022/09/06 20:44:23;;;;;;;12.23;6.55;;;;;;;20.18;67.94;96988.91;10347826;28;20050;-83
2022/09/06 20:49:43;;;;;;;15.10;6.82;;;;;;;20.18;67.93;96974.59;10335745;28;20559;-83
2022/09/06 20:55:03;;;;;;;12.23;6.25;;;;;;;20.16;67.95;96969.50;10346784;28;20565;-83
2022/09/06 21:00:22;;;;;;;12.48;6.28;;;;;;;20.16;67.91;96964.09;10354056;28;20383;-83
2022/09/06 21:05:42;;;;;;;10.88;6.25;;;;;;;20.19;67.86;96957.22;10350456;28;20050;-83
2022/09/06 21:11:03;;;;;;;10.20;6.10;;;;;;;20.18;67.75;96947.53;10359129;28;20046;-83
2022/09/06 21:16:24;;;;;;;12.05;6.18;;;;;;;20.18;67.89;96952.94;10344760;28;20045;-83
2022/09/06 21:21:44;;;;;;;11.43;6.43;;;;;;;20.17;68.04;96945.94;10361761;28;20049;-83
2022/09/06 21:27:05;;;;;;;11.77;6.30;;;;;;;20.17;68.07;96946.75;10347537;28;20046;-83
2022/09/06 21:32:25;;;;;;;11.95;6.35;;;;;;;20.17;67.94;96945.94;10338216;28;20042;-83
2022/09/06 21:37:44;;;;;;;10.23;6.30;;;;;;;20.19;68.19;96946.41;10368129;28;20053;-83
2022/09/06 21:43:04;;;;;;;10.10;5.88;;;;;;;20.17;68.06;96952.16;10346434;28;20053;-82
2022/09/06 21:48:23;;;;;;;10.20;6.50;;;;;;;20.17;68.11;96952.16;10332703;28;20540;-82
2022/09/06 21:53:45;;;;;;;8.13;5.95;;;;;;;20.18;68.25;96953.72;10347317;28;20060;-82
2022/09/06 21:59:05;;;;;;;10.18;5.78;;;;;;;20.17;68.25;96946.75;10312743;28;20042;-82
2022/09/06 22:04:25;;;;;;;9.68;5.68;;;;;;;20.18;68.44;96948.31;10332510;28;20049;-82
2022/09/06 22:09:46;;;;;;;8.20;5.40;;;;;;;20.18;68.33;96942.13;10342075;28;20045;-83
2022/09/06 22:15:07;;;;;;;8.32;5.97;;;;;;;20.19;68.38;96933.69;10346350;28;20046;-83
2022/09/06 22:20:27;;;;;;;8.48;5.43;;;;;;;20.18;68.38;96929.38;10347865;28;20042;-83
2022/09/06 22:25:46;;;;;;;8.07;5.63;;;;;;;20.18;68.32;96923.97;10365446;28;20049;-83
2022/09/06 22:31:06;;;;;;;11.38;5.70;;;;;;;20.19;68.32;96931.00;10321994;28;20049;-82
2022/09/06 22:36:26;;;;;;;7.78;5.40;;;;;;;20.20;68.42;96935.28;10341003;28;20039;-82
2022/09/06 22:41:53;;;;;;;8.77;5.18;;;;;;;20.19;68.37;96930.19;10606732;22;20150;-59
2022/09/06 22:47:12;;;;;;;8.68;5.63;;;;;;;20.19;68.46;96930.19;10566719;28;20055;-59
2022/09/06 22:52:31;;;;;;;8.00;5.22;;;;;;;20.17;68.37;96933.22;10574817;28;20051;-59
2022/09/06 22:57:51;;;;;;;7.72;5.25;;;;;;;20.19;68.41;96933.69;10576565;28;20047;-59
2022/09/06 23:03:10;;;;;;;8.75;5.47;;;;;;;20.18;68.44;96945.63;10587655;28;20036;-54
2022/09/06 23:08:30;;;;;;;7.57;5.20;;;;;;;20.18;68.44;96931.31;10587385;28;20406;-59
2022/09/06 23:13:54;;;;;;;9.20;5.30;;;;;;;20.18;68.46;96921.28;10587376;28;20035;-59
2022/09/06 23:19:14;;;;;;;7.05;5.15;;;;;;;20.18;68.38;96918.56;10573569;28;20048;-55
2022/09/06 23:24:33;;;;;;;9.90;4.93;;;;;;;20.17;68.43;96914.28;10573424;28;20050;-55
2022/09/06 23:29:53;;;;;;;7.85;4.97;;;;;;;20.18;68.39;96920.50;10567302;28;20121;-59
2022/09/06 23:35:12;;;;;;;6.32;4.75;;;;;;;20.18;68.43;96912.38;10560084;28;20105;-59
2022/09/06 23:40:32;;;;;;;7.35;4.82;;;;;;;20.17;68.45;96917.00;10572294;28;20059;-59
2022/09/06 23:45:51;;;;;;;9.13;5.03;;;;;;;20.16;68.46;96912.69;10570058;28;20051;-59
2022/09/06 23:51:11;;;;;;;7.20;4.38;;;;;;;20.18;68.40;96921.28;10568793;28;20048;-58
2022/09/06 23:56:31;;;;;;;7.28;5.18;;;;;;;20.18;68.48;96913.16;10542905;28;20097;-59
